createdAt,value
2023-03-10T00:01:32.149Z,14.53
2023-03-10T00:04:01.115Z,12.87
2023-03-10T00:06:32.326Z,15.03
2023-03-10T00:08:59.656Z,14.00
2023-03-10T00:11:27.268Z,14.70
2023-03-10T00:13:54.034Z,13.17
2023-03-10T00:16:26.912Z,12.80
2023-03-10T00:18:54.972Z,13.07
2023-03-10T00:21:28.378Z,12.77
2023-03-10T00:23:56.041Z,12.53
2023-03-10T00:26:24.155Z,12.77
2023-03-10T00:28:51.416Z,11.10
2023-03-10T00:31:21.321Z,12.13
2023-03-10T00:33:48.891Z,11.93
2023-03-10T00:36:18.401Z,11.47
2023-03-10T00:38:46.777Z,11.63
2023-03-10T00:41:16.002Z,14.33
2023-03-10T00:43:43.766Z,11.17
2023-03-10T00:46:11.276Z,11.13
2023-03-10T00:48:38.176Z,12.27
2023-03-10T00:51:06.656Z,12.37
2023-03-10T00:53:35.425Z,12.43
2023-03-10T00:56:25.260Z,11.63
2023-03-10T00:58:58.093Z,12.30
2023-03-10T01:01:37.701Z,11.97
2023-03-10T01:04:11.544Z,11.63
2023-03-10T01:06:38.568Z,13.17
2023-03-10T01:09:06.664Z,12.20
2023-03-10T01:11:33.921Z,11.90
2023-03-10T01:14:04.300Z,12.70
2023-03-10T01:16:31.478Z,11.37
2023-03-10T01:18:58.848Z,11.37
2023-03-10T01:21:31.939Z,10.87
2023-03-10T01:24:00.351Z,10.80
2023-03-10T01:26:27.491Z,10.63
2023-03-10T01:28:54.468Z,12.23
2023-03-10T01:31:21.672Z,11.23
2023-03-10T01:33:48.784Z,10.83
2023-03-10T01:36:21.322Z,13.30
2023-03-10T01:38:49.297Z,10.90
2023-03-10T01:41:16.831Z,10.67
2023-03-10T01:43:46.091Z,12.47
2023-03-10T01:46:34.033Z,11.80
2023-03-10T01:49:10.059Z,10.33
2023-03-10T01:51:39.696Z,8.80
2023-03-10T01:54:13.777Z,9.57
2023-03-10T01:56:41.539Z,9.23
2023-03-10T01:59:10.954Z,9.80
2023-03-10T02:01:38.227Z,9.73
2023-03-10T02:04:11.143Z,11.63
2023-03-10T02:06:41.910Z,9.57
2023-03-10T02:09:09.459Z,10.03
2023-03-10T02:11:37.969Z,9.23
2023-03-10T02:14:06.798Z,10.70
2023-03-10T02:16:34.861Z,9.70
2023-03-10T02:19:04.552Z,9.97
2023-03-10T02:22:01.574Z,9.87
2023-03-10T02:24:39.473Z,9.63
2023-03-10T02:27:22.939Z,10.37
2023-03-10T02:30:09.485Z,9.37
2023-03-10T02:32:42.153Z,11.10
2023-03-10T02:35:09.686Z,11.50
2023-03-10T02:37:37.053Z,10.00
2023-03-10T02:40:34.037Z,10.87
2023-03-10T02:43:31.695Z,11.37
2023-03-10T02:46:03.472Z,7.47
2023-03-10T02:48:36.886Z,5.43
2023-03-10T02:51:09.808Z,7.80
2023-03-10T02:53:37.248Z,6.03
2023-03-10T02:56:04.354Z,6.77
2023-03-10T02:58:32.402Z,7.37
2023-03-10T03:00:59.393Z,6.33
2023-03-10T03:03:26.653Z,10.20
2023-03-10T03:05:53.959Z,11.00
2023-03-10T03:08:23.969Z,10.53
2023-03-10T03:10:50.995Z,9.77
2023-03-10T03:13:17.980Z,12.87
2023-03-10T03:15:44.867Z,11.83
2023-03-10T03:18:11.886Z,11.37
2023-03-10T03:20:41.194Z,11.63
2023-03-10T03:23:08.392Z,12.27
2023-03-10T03:25:38.497Z,11.50
2023-03-10T03:28:07.613Z,11.07
2023-03-10T03:30:34.509Z,13.00
2023-03-10T03:33:02.514Z,12.40
2023-03-10T03:35:32.961Z,11.07
2023-03-10T03:38:00.718Z,15.83
2023-03-10T03:40:30.453Z,14.47
2023-03-10T03:42:57.419Z,15.47
2023-03-10T03:45:26.657Z,14.83
2023-03-10T03:47:53.736Z,17.23
2023-03-10T03:50:22.152Z,15.97
2023-03-10T03:52:48.920Z,18.13
2023-03-10T03:55:18.559Z,17.17
2023-03-10T03:57:46.223Z,17.33
2023-03-10T04:00:18.610Z,16.07
2023-03-10T04:02:45.831Z,15.67
2023-03-10T04:05:13.102Z,17.27
2023-03-10T04:07:41.550Z,16.23
2023-03-10T04:10:10.592Z,17.27
2023-03-10T04:12:37.563Z,16.43
2023-03-10T04:15:05.342Z,16.87
2023-03-10T04:17:32.086Z,17.97
2023-03-10T04:20:06.909Z,22.33
2023-03-10T04:22:36.029Z,20.93
2023-03-10T04:25:04.023Z,18.20
2023-03-10T04:27:31.705Z,16.87
2023-03-10T04:29:58.661Z,20.50
2023-03-10T04:32:25.673Z,18.93
2023-03-10T04:34:52.414Z,19.53
2023-03-10T04:37:21.937Z,21.77
2023-03-10T04:39:49.482Z,20.27
2023-03-10T04:42:16.209Z,20.33
2023-03-10T04:44:43.177Z,18.87
2023-03-10T04:47:10.001Z,18.40
2023-03-10T04:49:38.337Z,20.63
2023-03-10T04:52:05.668Z,19.13
2023-03-10T04:54:32.508Z,19.10
2023-03-10T04:56:59.491Z,19.30
2023-03-10T04:59:26.833Z,14.60
2023-03-10T05:01:53.676Z,13.30
2023-03-10T05:04:21.713Z,12.97
2023-03-10T05:06:52.707Z,11.63
2023-03-10T05:09:20.033Z,11.73
2023-03-10T05:11:47.180Z,10.13
2023-03-10T05:14:14.584Z,9.47
2023-03-10T05:16:41.449Z,9.30
2023-03-10T05:19:08.256Z,9.10
2023-03-10T05:21:35.339Z,9.27
2023-03-10T05:24:02.258Z,8.60
2023-03-10T05:26:29.160Z,9.50
2023-03-10T05:28:57.149Z,9.07
2023-03-10T05:31:26.310Z,10.63
2023-03-10T05:33:54.292Z,7.87
2023-03-10T05:36:22.190Z,6.93
2023-03-10T05:38:49.384Z,6.93
2023-03-10T05:41:16.605Z,7.60
2023-03-10T05:43:43.685Z,8.00
2023-03-10T05:46:11.547Z,8.13
2023-03-10T05:48:39.278Z,8.53
2023-03-10T05:51:12.405Z,9.13
2023-03-10T05:53:40.494Z,8.30
2023-03-10T05:56:15.752Z,8.90
2023-03-10T05:58:43.125Z,8.93
2023-03-10T06:01:10.513Z,9.97
2023-03-10T06:03:38.850Z,8.30
2023-03-10T06:06:06.906Z,10.33
2023-03-10T06:08:34.084Z,10.50
2023-03-10T06:11:01.183Z,9.23
2023-03-10T06:13:28.104Z,9.57
2023-03-10T06:16:06.526Z,8.80
2023-03-10T06:18:34.704Z,9.50
2023-03-10T06:21:07.539Z,9.47
2023-03-10T06:23:34.510Z,10.30
2023-03-10T06:26:13.506Z,7.67
2023-03-10T06:28:42.476Z,10.20
2023-03-10T06:31:14.827Z,8.57
2023-03-10T06:33:41.743Z,8.50
2023-03-10T06:36:10.685Z,9.03
2023-03-10T06:38:38.392Z,9.63
2023-03-10T06:41:05.909Z,7.20
2023-03-10T06:43:33.986Z,7.47
2023-03-10T06:46:07.559Z,8.03
2023-03-10T06:48:36.277Z,8.00
2023-03-10T06:51:07.123Z,7.97
2023-03-10T06:53:34.196Z,8.47
2023-03-10T06:56:13.524Z,7.07
2023-03-10T06:58:41.395Z,7.33
2023-03-10T07:01:09.303Z,7.00
2023-03-10T07:03:36.757Z,6.27
2023-03-10T07:06:04.914Z,6.33
2023-03-10T07:08:31.966Z,7.73
2023-03-10T07:10:59.091Z,7.97
2023-03-10T07:13:25.852Z,7.53
2023-03-10T07:15:52.599Z,9.80
2023-03-10T07:18:19.804Z,8.17
2023-03-10T07:20:47.865Z,8.17
2023-03-10T07:23:15.562Z,6.00
2023-03-10T07:25:42.612Z,6.93
2023-03-10T07:28:09.652Z,7.27
2023-03-10T07:30:37.825Z,8.13
2023-03-10T07:33:05.635Z,7.33
2023-03-10T07:35:34.196Z,7.43
2023-03-10T07:38:03.847Z,7.60
2023-03-10T07:40:31.153Z,7.87
2023-03-10T07:42:58.084Z,7.90
2023-03-10T07:45:25.882Z,9.07
2023-03-10T07:47:54.173Z,10.30
2023-03-10T07:50:21.905Z,8.33
2023-03-10T07:52:48.886Z,8.77
2023-03-10T07:55:16.495Z,8.87
2023-03-10T07:57:43.403Z,6.87
2023-03-10T08:00:11.353Z,7.47
2023-03-10T08:02:38.755Z,8.60
2023-03-10T08:05:06.052Z,9.00
2023-03-10T08:07:33.018Z,9.10
2023-03-10T08:10:00.247Z,8.73
2023-03-10T08:12:27.181Z,11.03
2023-03-10T08:14:54.168Z,9.83
2023-03-10T08:17:21.015Z,9.17
2023-03-10T08:19:47.906Z,9.13
2023-03-10T08:22:16.447Z,6.20
2023-03-10T08:24:43.274Z,7.37
2023-03-10T08:27:10.088Z,7.50
2023-03-10T08:29:37.805Z,6.93
2023-03-10T08:32:05.233Z,7.00
2023-03-10T08:34:33.681Z,7.03
2023-03-10T08:37:01.153Z,7.57
2023-03-10T08:39:28.812Z,8.30
2023-03-10T08:41:56.264Z,6.63
2023-03-10T08:44:23.533Z,6.57
2023-03-10T08:46:51.143Z,7.77
2023-03-10T08:49:20.247Z,8.73
2023-03-10T08:51:47.575Z,8.03
2023-03-10T08:54:17.959Z,9.03
2023-03-10T08:56:45.215Z,7.50
2023-03-10T08:59:12.189Z,7.90
2023-03-10T09:01:39.206Z,8.77
2023-03-10T09:04:08.346Z,8.23
2023-03-10T09:06:36.014Z,7.40
2023-03-10T09:09:04.215Z,8.10
2023-03-10T09:11:34.066Z,6.60
2023-03-10T09:14:02.025Z,5.87
2023-03-10T09:16:29.638Z,6.60
2023-03-10T09:18:58.795Z,5.83
2023-03-10T09:21:26.231Z,5.83
2023-03-10T09:23:53.316Z,7.00
2023-03-10T09:26:21.477Z,5.70
2023-03-10T09:28:50.017Z,5.87
2023-03-10T09:31:20.660Z,6.07
2023-03-10T09:33:48.435Z,7.00
2023-03-10T09:36:15.892Z,5.97
2023-03-10T09:38:43.390Z,6.33
2023-03-10T09:41:19.123Z,6.87
2023-03-10T09:43:59.578Z,6.90
2023-03-10T09:46:48.784Z,7.70
2023-03-10T09:49:36.351Z,8.83
2023-03-10T09:52:24.479Z,7.77
2023-03-10T09:54:56.118Z,7.30
2023-03-10T09:57:23.783Z,7.63
2023-03-10T09:59:56.112Z,6.70
2023-03-10T10:02:36.394Z,6.27
2023-03-10T10:05:15.545Z,7.20
2023-03-10T10:07:52.060Z,8.50
2023-03-10T10:10:24.874Z,6.00
2023-03-10T10:12:54.566Z,7.53
2023-03-10T10:15:28.348Z,10.03
2023-03-10T10:18:34.307Z,6.30
2023-03-10T10:21:10.551Z,5.17
2023-03-10T10:23:51.899Z,5.70
2023-03-10T10:26:21.650Z,4.63
2023-03-10T10:28:59.844Z,5.70
2023-03-10T10:31:29.928Z,4.60
2023-03-10T10:34:01.149Z,4.93
2023-03-10T10:36:32.935Z,5.80
2023-03-10T10:39:00.530Z,3.90
2023-03-10T10:41:33.502Z,3.60
2023-03-10T10:44:16.170Z,5.30
2023-03-10T10:46:57.310Z,4.60
2023-03-10T10:49:25.956Z,4.37
2023-03-10T10:52:06.130Z,3.60
2023-03-10T10:54:39.561Z,3.90
2023-03-10T10:57:20.685Z,4.97
2023-03-10T10:59:47.933Z,4.20
2023-03-10T11:02:31.181Z,4.87
2023-03-10T11:05:16.362Z,4.70
2023-03-10T11:07:44.575Z,3.67
2023-03-10T11:10:22.056Z,4.47
2023-03-10T11:13:16.368Z,4.53
2023-03-10T11:16:18.797Z,4.17
2023-03-10T11:18:58.615Z,4.03
2023-03-10T11:21:30.086Z,3.63
2023-03-10T11:24:09.504Z,2.57
2023-03-10T11:26:39.338Z,2.53
2023-03-10T11:29:26.659Z,2.33
2023-03-10T11:32:05.797Z,2.77
2023-03-10T11:34:38.074Z,3.23
2023-03-10T11:37:24.958Z,3.13
2023-03-10T11:40:00.146Z,2.97
2023-03-10T11:42:45.949Z,3.33
2023-03-10T11:45:37.045Z,2.30
2023-03-10T11:48:29.368Z,3.17
2023-03-10T11:51:04.556Z,1.73
2023-03-10T11:53:53.646Z,2.57
2023-03-10T11:56:23.095Z,3.70
2023-03-10T11:59:14.210Z,2.67
2023-03-10T12:01:51.414Z,5.43
2023-03-10T12:04:23.068Z,4.13
2023-03-10T12:07:12.462Z,3.83
2023-03-10T12:09:46.335Z,3.93
2023-03-10T12:12:27.504Z,3.87
2023-03-10T12:14:56.954Z,2.40
2023-03-10T12:17:24.232Z,4.67
2023-03-10T12:20:25.304Z,3.90
2023-03-10T12:22:53.032Z,2.40
2023-03-10T12:25:29.217Z,3.47
2023-03-10T12:28:18.125Z,2.87
2023-03-10T12:30:53.448Z,2.30
2023-03-10T12:33:42.596Z,3.10
2023-03-10T12:36:34.442Z,2.77
2023-03-10T12:39:21.990Z,3.73
2023-03-10T12:42:02.639Z,3.00
2023-03-10T12:44:41.399Z,3.27
2023-03-10T12:47:08.492Z,3.30
2023-03-10T12:49:41.083Z,2.97
2023-03-10T12:52:08.214Z,3.20
2023-03-10T12:54:53.728Z,3.10
2023-03-10T12:57:48.921Z,3.03
2023-03-10T13:00:46.438Z,3.40
2023-03-10T13:03:19.631Z,3.80
2023-03-10T13:06:01.049Z,3.17
2023-03-10T13:08:39.788Z,3.03
2023-03-10T13:11:34.541Z,3.27
2023-03-10T13:14:19.501Z,4.70
2023-03-10T13:16:58.435Z,3.00
2023-03-10T13:19:28.271Z,4.33
2023-03-10T13:21:56.494Z,5.07
2023-03-10T13:24:28.204Z,3.80
2023-03-10T13:27:13.151Z,4.70
2023-03-10T13:29:54.479Z,4.53
2023-03-10T13:32:22.062Z,4.00
2023-03-10T13:34:48.906Z,3.97
2023-03-10T13:37:16.480Z,3.17
2023-03-10T13:39:43.877Z,6.10
2023-03-10T13:42:40.969Z,3.77
2023-03-10T13:45:25.486Z,3.33
2023-03-10T13:47:52.764Z,6.70
2023-03-10T13:50:19.849Z,5.10
2023-03-10T13:52:58.140Z,4.37
2023-03-10T13:55:26.953Z,4.80
2023-03-10T13:57:54.909Z,6.13
2023-03-10T14:00:26.617Z,4.70
2023-03-10T14:02:55.293Z,4.93
2023-03-10T14:05:37.510Z,3.50
2023-03-10T14:08:04.922Z,3.77
2023-03-10T14:10:31.781Z,3.90
2023-03-10T14:12:58.792Z,4.93
2023-03-10T14:15:29.189Z,3.87
2023-03-10T14:18:09.926Z,6.07
2023-03-10T14:20:39.720Z,3.80
2023-03-10T14:23:19.053Z,4.03
2023-03-10T14:25:47.714Z,6.23
2023-03-10T14:28:22.117Z,5.30
2023-03-10T14:30:49.060Z,4.70
2023-03-10T14:33:16.368Z,4.90
2023-03-10T14:35:46.141Z,4.90
2023-03-10T14:38:14.834Z,5.37
2023-03-10T14:40:53.773Z,6.43
2023-03-10T14:43:26.273Z,6.93
2023-03-10T14:45:56.471Z,5.13
2023-03-10T14:48:25.872Z,7.20
2023-03-10T14:50:55.098Z,9.50
2023-03-10T14:53:25.445Z,7.03
2023-03-10T14:55:55.241Z,6.57
2023-03-10T14:58:29.850Z,7.07
2023-03-10T15:00:56.703Z,7.53
2023-03-10T15:03:23.511Z,7.10
2023-03-10T15:05:50.345Z,5.50
2023-03-10T15:08:18.062Z,9.53
2023-03-10T15:10:48.680Z,4.80
2023-03-10T15:13:18.483Z,4.07
2023-03-10T15:15:46.686Z,4.37
2023-03-10T15:18:17.077Z,4.30
2023-03-10T15:20:44.348Z,5.57
2023-03-10T15:23:15.298Z,5.23
2023-03-10T15:25:45.299Z,6.00
2023-03-10T15:28:12.905Z,4.27
2023-03-10T15:30:40.600Z,4.93
2023-03-10T15:33:07.422Z,4.13
2023-03-10T15:35:35.234Z,3.67
2023-03-10T15:38:02.535Z,3.57
2023-03-10T15:40:31.779Z,3.93
2023-03-10T15:43:00.033Z,3.33
2023-03-10T15:45:28.937Z,5.37
2023-03-10T15:47:56.047Z,3.37
2023-03-10T15:50:23.573Z,3.90
2023-03-10T15:52:53.593Z,6.33
2023-03-10T15:55:20.891Z,6.47
2023-03-10T15:57:50.230Z,4.00
2023-03-10T16:00:22.913Z,3.87
2023-03-10T16:02:50.963Z,3.50
2023-03-10T16:05:18.992Z,4.10
2023-03-10T16:07:46.097Z,3.50
2023-03-10T16:10:15.747Z,4.23
2023-03-10T16:12:42.519Z,5.30
2023-03-10T16:15:10.194Z,4.73
2023-03-10T16:17:37.664Z,5.50
2023-03-10T16:20:11.773Z,4.90
2023-03-10T16:22:43.249Z,6.40
2023-03-10T16:25:15.885Z,4.40
2023-03-10T16:27:45.004Z,4.33
2023-03-10T16:30:14.028Z,4.77
2023-03-10T16:32:47.794Z,4.47
2023-03-10T16:35:15.938Z,5.07
2023-03-10T16:37:43.460Z,5.03
2023-03-10T16:40:11.298Z,5.50
2023-03-10T16:42:38.838Z,4.83
2023-03-10T16:45:07.299Z,5.43
2023-03-10T16:47:34.352Z,5.47
2023-03-10T16:50:01.163Z,5.73
2023-03-10T16:52:28.055Z,7.53
2023-03-10T16:55:00.889Z,5.90
2023-03-10T16:57:27.680Z,6.60
2023-03-10T16:59:54.633Z,5.53
2023-03-10T17:02:21.721Z,7.97
2023-03-10T17:04:49.413Z,5.57
2023-03-10T17:07:16.675Z,4.80
2023-03-10T17:09:43.537Z,5.33
2023-03-10T17:12:10.544Z,4.57
2023-03-10T17:14:37.483Z,4.30
2023-03-10T17:17:06.535Z,5.50
2023-03-10T17:19:34.863Z,4.60
2023-03-10T17:22:01.815Z,3.77
2023-03-10T17:24:29.590Z,4.27
2023-03-10T17:26:56.692Z,4.10
2023-03-10T17:29:23.509Z,4.57
2023-03-10T17:31:51.662Z,5.70
2023-03-10T17:34:20.025Z,5.20
2023-03-10T17:36:49.832Z,7.57
2023-03-10T17:39:20.078Z,4.77
2023-03-10T17:41:47.985Z,5.53
2023-03-10T17:44:15.735Z,4.83
2023-03-10T17:46:42.951Z,6.30
2023-03-10T17:49:12.525Z,6.60
2023-03-10T17:51:44.274Z,5.57
2023-03-10T17:54:22.939Z,5.83
2023-03-10T17:56:50.875Z,5.87
2023-03-10T17:59:18.097Z,8.00
2023-03-10T18:01:45.591Z,7.83
2023-03-10T18:04:12.932Z,7.80
2023-03-10T18:06:40.100Z,9.70
2023-03-10T18:09:09.221Z,14.37
2023-03-10T18:11:36.637Z,8.53
2023-03-10T18:14:05.000Z,7.80
2023-03-10T18:16:35.114Z,6.50
2023-03-10T18:19:02.242Z,7.70
2023-03-10T18:21:29.103Z,4.73
2023-03-10T18:23:56.119Z,5.23
2023-03-10T18:26:27.634Z,7.07
2023-03-10T18:28:55.086Z,10.67
2023-03-10T18:31:25.537Z,10.37
2023-03-10T18:33:53.121Z,6.53
2023-03-10T18:36:20.788Z,5.60
2023-03-10T18:38:48.770Z,6.03
2023-03-10T18:41:19.150Z,5.57
2023-03-10T18:43:46.687Z,5.20
2023-03-10T18:46:13.525Z,3.60
2023-03-10T18:48:40.552Z,3.30
2023-03-10T18:51:07.388Z,4.80
2023-03-10T18:53:34.402Z,7.03
2023-03-10T18:56:01.482Z,6.67
2023-03-10T18:58:29.828Z,8.53
2023-03-10T19:00:58.174Z,8.77
2023-03-10T19:03:28.312Z,12.27
2023-03-10T19:05:55.118Z,10.20
2023-03-10T19:08:26.960Z,12.03
2023-03-10T19:10:56.109Z,12.63
2023-03-10T19:13:24.355Z,10.70
2023-03-10T19:15:51.733Z,11.47
2023-03-10T19:18:19.051Z,8.20
2023-03-10T19:20:46.529Z,12.27
2023-03-10T19:23:14.668Z,11.03
2023-03-10T19:25:41.956Z,9.30
2023-03-10T19:28:08.906Z,11.63
2023-03-10T19:30:36.323Z,11.00
2023-03-10T19:33:03.280Z,8.27
2023-03-10T19:35:30.128Z,8.60
2023-03-10T19:37:58.168Z,8.43
2023-03-10T19:40:24.989Z,6.23
2023-03-10T19:42:51.838Z,6.97
2023-03-10T19:45:19.634Z,10.57
2023-03-10T19:47:46.737Z,7.97
2023-03-10T19:50:16.651Z,7.73
2023-03-10T19:52:48.646Z,7.97
2023-03-10T19:55:23.061Z,8.83
2023-03-10T19:57:52.254Z,10.37
2023-03-10T20:00:25.113Z,7.13
2023-03-10T20:02:53.431Z,9.93
2023-03-10T20:05:21.036Z,9.80
2023-03-10T20:07:48.795Z,9.03
2023-03-10T20:10:18.217Z,10.53
2023-03-10T20:12:51.172Z,12.20
2023-03-10T20:15:18.195Z,11.53
2023-03-10T20:17:45.303Z,11.53
2023-03-10T20:20:15.180Z,9.33
2023-03-10T20:22:45.671Z,9.43
2023-03-10T20:25:15.513Z,12.93
2023-03-10T20:27:42.426Z,13.33
2023-03-10T20:30:27.978Z,11.30
2023-03-10T20:32:55.800Z,11.80
2023-03-10T20:35:23.005Z,14.27
2023-03-10T20:37:50.779Z,13.50
2023-03-10T20:40:23.066Z,12.17
2023-03-10T20:42:55.814Z,11.53
2023-03-10T20:45:23.307Z,15.37
2023-03-10T20:47:50.961Z,16.90
2023-03-10T20:50:18.367Z,13.17
2023-03-10T20:52:45.506Z,12.37
2023-03-10T20:55:24.321Z,11.83
2023-03-10T20:57:53.499Z,12.30
2023-03-10T21:00:27.404Z,14.43
2023-03-10T21:02:57.320Z,16.30
2023-03-10T21:05:26.150Z,13.67
2023-03-10T21:07:53.993Z,14.10
2023-03-10T21:10:21.889Z,13.27
2023-03-10T21:12:51.467Z,14.03
2023-03-10T21:15:24.009Z,13.73
2023-03-10T21:17:54.148Z,13.47
2023-03-10T21:20:22.899Z,14.27
2023-03-10T21:22:50.797Z,11.47
2023-03-10T21:25:23.991Z,10.80
2023-03-10T21:27:53.531Z,12.13
2023-03-10T21:30:22.083Z,8.37
2023-03-10T21:32:49.150Z,12.07
2023-03-10T21:35:16.483Z,10.77
2023-03-10T21:37:46.917Z,11.80
2023-03-10T21:40:15.255Z,15.03
2023-03-10T21:42:42.868Z,12.43
2023-03-10T21:45:13.466Z,11.67
2023-03-10T21:47:40.561Z,11.00
2023-03-10T21:50:08.639Z,11.10
2023-03-10T21:52:35.646Z,13.20
2023-03-10T21:55:03.390Z,11.40
2023-03-10T21:57:30.296Z,12.23
2023-03-10T21:59:57.161Z,12.83
2023-03-10T22:02:30.137Z,13.27
2023-03-10T22:04:57.630Z,12.13
2023-03-10T22:07:24.913Z,9.90
2023-03-10T22:09:51.995Z,6.53
2023-03-10T22:12:18.846Z,8.47
2023-03-10T22:14:45.781Z,7.73
2023-03-10T22:17:12.858Z,9.37
2023-03-10T22:19:39.780Z,9.73
2023-03-10T22:22:06.678Z,10.13
2023-03-10T22:24:33.609Z,9.93
2023-03-10T22:27:00.475Z,10.27
2023-03-10T22:29:27.642Z,11.37
2023-03-10T22:31:56.435Z,11.60
2023-03-10T22:34:23.314Z,11.97
2023-03-10T22:36:50.069Z,8.60
2023-03-10T22:39:17.128Z,9.37
2023-03-10T22:41:44.132Z,7.20
2023-03-10T22:44:10.875Z,7.43
2023-03-10T22:46:40.336Z,7.37
2023-03-10T22:49:07.676Z,4.63
2023-03-10T22:51:34.452Z,5.67
2023-03-10T22:54:01.523Z,4.87
2023-03-10T22:56:28.835Z,5.67
2023-03-10T22:58:55.746Z,5.87
2023-03-10T23:01:22.949Z,7.03
2023-03-10T23:03:50.186Z,8.27
2023-03-10T23:06:17.433Z,6.97
2023-03-10T23:08:44.846Z,6.87
2023-03-10T23:11:14.378Z,7.53
2023-03-10T23:13:41.746Z,5.00
2023-03-10T23:16:09.053Z,6.20
2023-03-10T23:18:35.980Z,6.13
2023-03-10T23:21:04.054Z,5.47
2023-03-10T23:23:32.120Z,5.93
2023-03-10T23:25:59.006Z,6.60
2023-03-10T23:28:25.822Z,7.17
2023-03-10T23:30:54.340Z,6.33
2023-03-10T23:33:23.762Z,7.40
2023-03-10T23:35:54.152Z,6.27
2023-03-10T23:38:23.780Z,6.93
2023-03-10T23:40:51.343Z,6.33
2023-03-10T23:43:19.063Z,6.50
2023-03-10T23:45:46.291Z,5.53
2023-03-10T23:48:16.239Z,5.00
2023-03-10T23:50:44.737Z,5.90
2023-03-10T23:53:14.865Z,7.93
2023-03-10T23:55:44.029Z,5.83
2023-03-10T23:58:11.984Z,5.57
